createdAt,value
2023-03-04T00:01:37.324Z,34.83
2023-03-04T00:04:10.559Z,30.10
2023-03-04T00:06:42.836Z,33.25
2023-03-04T00:09:15.950Z,32.75
2023-03-04T00:11:49.337Z,31.13
2023-03-04T00:14:21.848Z,31.33
2023-03-04T00:16:54.157Z,29.35
2023-03-04T00:19:26.461Z,29.25
2023-03-04T00:21:58.897Z,31.40
2023-03-04T00:27:05.071Z,28.10
2023-03-04T00:29:37.804Z,28.02
2023-03-04T00:32:11.715Z,27.67
2023-03-04T00:34:44.179Z,24.82
2023-03-04T00:37:16.815Z,28.57
2023-03-04T00:39:50.192Z,27.02
2023-03-04T00:42:23.283Z,30.43
2023-03-04T00:44:55.981Z,29.63
2023-03-04T00:47:28.489Z,28.07
2023-03-04T00:50:01.958Z,28.50
2023-03-04T00:52:34.973Z,26.73
2023-03-04T00:55:09.447Z,25.70
2023-03-04T00:57:42.648Z,26.37
2023-03-04T01:00:15.749Z,25.70
2023-03-04T01:02:48.433Z,25.62
2023-03-04T01:05:21.613Z,27.27
2023-03-04T01:07:54.178Z,27.05
2023-03-04T01:13:00.657Z,28.83
2023-03-04T01:15:34.632Z,24.90
2023-03-04T01:18:07.837Z,24.82
2023-03-04T01:20:40.747Z,24.35
2023-03-04T01:23:13.047Z,26.90
2023-03-04T01:25:46.684Z,31.05
2023-03-04T01:28:19.399Z,25.65
2023-03-04T01:30:53.636Z,24.45
2023-03-04T01:33:26.190Z,27.95
2023-03-04T01:35:59.150Z,26.02
2023-03-04T01:38:31.626Z,27.27
2023-03-04T01:41:04.310Z,24.72
2023-03-04T01:43:38.623Z,26.17
2023-03-04T01:46:14.589Z,26.05
2023-03-04T01:48:47.803Z,25.25
2023-03-04T01:51:21.221Z,27.00
2023-03-04T01:53:55.095Z,29.72
2023-03-04T01:56:31.242Z,30.62
2023-03-04T01:59:19.017Z,27.55
2023-03-04T02:01:57.829Z,24.98
2023-03-04T02:04:34.515Z,27.40
2023-03-04T02:07:07.952Z,25.80
2023-03-04T02:12:13.818Z,31.23
2023-03-04T02:14:46.579Z,31.48
2023-03-04T02:17:21.270Z,35.03
2023-03-04T02:20:28.313Z,30.12
2023-03-04T02:23:14.314Z,34.15
2023-03-04T02:26:06.432Z,38.05
2023-03-04T02:28:38.951Z,36.60
2023-03-04T02:31:28.203Z,37.55
2023-03-04T02:34:06.900Z,38.38
2023-03-04T02:36:40.113Z,38.08
2023-03-04T02:39:28.069Z,41.73
2023-03-04T02:42:01.112Z,38.35
2023-03-04T02:44:38.012Z,40.28
2023-03-04T02:47:12.423Z,40.00
2023-03-04T02:49:45.558Z,35.58
2023-03-04T02:52:25.445Z,40.78
2023-03-04T02:54:58.350Z,39.00
2023-03-04T02:57:30.957Z,41.42
2023-03-04T03:00:03.485Z,41.95
2023-03-04T03:02:36.666Z,45.43
2023-03-04T03:05:09.677Z,40.00
2023-03-04T03:07:42.130Z,43.98
2023-03-04T03:10:15.664Z,43.73
2023-03-04T03:12:48.486Z,45.83
2023-03-04T03:15:22.026Z,42.90
2023-03-04T03:17:55.172Z,46.75
2023-03-04T03:20:27.938Z,45.20
2023-03-04T03:23:00.789Z,47.78
2023-03-04T03:25:33.438Z,44.13
2023-03-04T03:28:06.031Z,44.90
2023-03-04T03:30:39.145Z,45.48
2023-03-04T03:33:11.797Z,43.95
2023-03-04T03:35:45.570Z,43.38
2023-03-04T03:38:18.620Z,44.88
2023-03-04T03:43:24.398Z,46.48
2023-03-04T03:45:57.101Z,48.48
2023-03-04T03:48:30.390Z,45.67
2023-03-04T03:51:23.944Z,44.00
2023-03-04T03:53:57.451Z,51.65
2023-03-04T03:56:30.020Z,44.55
2023-03-04T03:59:02.715Z,44.20
2023-03-04T04:01:35.444Z,50.40
2023-03-04T04:04:08.021Z,47.80
2023-03-04T04:06:40.643Z,47.05
2023-03-04T04:09:13.077Z,51.48
2023-03-04T04:11:46.290Z,48.63
2023-03-04T04:14:19.205Z,45.92
2023-03-04T04:16:52.430Z,44.77
2023-03-04T04:19:25.038Z,49.85
2023-03-04T04:21:58.213Z,50.90
2023-03-04T04:24:30.980Z,44.08
2023-03-04T04:27:04.679Z,51.40
2023-03-04T04:29:37.872Z,46.53
2023-03-04T04:32:12.207Z,47.00
2023-03-04T04:34:45.226Z,47.80
2023-03-04T04:37:17.630Z,44.08
2023-03-04T04:39:51.965Z,45.38
2023-03-04T04:42:24.920Z,48.50
2023-03-04T04:44:58.127Z,47.20
2023-03-04T04:47:30.605Z,48.20
2023-03-04T04:50:03.316Z,43.55
2023-03-04T04:52:36.488Z,47.10
2023-03-04T04:55:09.307Z,48.68
2023-03-04T04:57:42.520Z,47.40
2023-03-04T05:00:15.584Z,50.75
2023-03-04T05:02:48.817Z,46.95
2023-03-04T05:05:21.774Z,53.95
2023-03-04T05:07:55.633Z,51.65
2023-03-04T05:10:28.059Z,48.33
2023-03-04T05:13:00.560Z,45.50
2023-03-04T05:15:34.164Z,45.30
2023-03-04T05:18:19.338Z,44.03
2023-03-04T05:20:55.061Z,45.20
2023-03-04T05:23:27.874Z,49.30
2023-03-04T05:26:00.274Z,45.67
2023-03-04T05:28:32.820Z,46.25
2023-03-04T05:31:05.986Z,47.93
2023-03-04T05:33:38.797Z,46.55
2023-03-04T05:36:11.417Z,43.78
2023-03-04T05:38:44.364Z,46.08
2023-03-04T05:41:18.659Z,41.77
2023-03-04T05:43:52.040Z,42.60
2023-03-04T05:46:26.068Z,45.45
2023-03-04T05:48:58.534Z,41.83
2023-03-04T05:51:31.245Z,44.65
2023-03-04T05:54:03.866Z,42.85
2023-03-04T05:56:37.291Z,41.85
2023-03-04T05:59:09.838Z,46.68
2023-03-04T06:01:42.803Z,45.73
2023-03-04T06:04:15.418Z,43.23
2023-03-04T06:06:48.866Z,44.48
2023-03-04T06:09:22.531Z,41.65
2023-03-04T06:11:55.409Z,41.68
2023-03-04T06:17:01.798Z,39.30
2023-03-04T06:19:34.242Z,42.38
2023-03-04T06:22:07.834Z,38.50
2023-03-04T06:24:40.727Z,42.83
2023-03-04T06:27:14.031Z,38.48
2023-03-04T06:29:46.813Z,42.50
2023-03-04T06:32:19.674Z,43.52
2023-03-04T06:34:52.413Z,40.08
2023-03-04T06:37:25.288Z,43.30
2023-03-04T06:39:58.352Z,43.63
2023-03-04T06:42:30.781Z,45.08
2023-03-04T06:45:03.711Z,42.67
2023-03-04T06:47:36.891Z,47.65
2023-03-04T06:50:12.215Z,50.10
2023-03-04T06:52:44.573Z,42.23
2023-03-04T06:55:18.570Z,41.35
2023-03-04T06:57:51.756Z,42.48
2023-03-04T07:00:24.777Z,39.45
2023-03-04T07:02:57.299Z,44.38
2023-03-04T07:05:30.879Z,45.73
2023-03-04T07:08:04.120Z,47.20
2023-03-04T07:10:37.274Z,41.50
2023-03-04T07:13:10.960Z,46.58
2023-03-04T07:15:44.036Z,40.15
2023-03-04T07:18:17.023Z,45.92
2023-03-04T07:20:51.107Z,46.95
2023-03-04T07:23:24.312Z,45.00
2023-03-04T07:25:59.366Z,42.83
2023-03-04T07:28:31.784Z,44.80
2023-03-04T07:31:32.893Z,44.35
2023-03-04T07:34:08.618Z,47.62
2023-03-04T07:36:41.901Z,46.13
2023-03-04T07:39:14.858Z,52.15
2023-03-04T07:41:48.384Z,52.80
2023-03-04T07:44:21.531Z,46.50
2023-03-04T07:46:54.475Z,47.53
2023-03-04T07:49:26.974Z,45.90
2023-03-04T07:51:59.841Z,46.15
2023-03-04T07:54:32.189Z,48.40
2023-03-04T07:57:04.612Z,49.53
2023-03-04T07:59:37.589Z,52.13
2023-03-04T08:02:11.569Z,53.52
2023-03-04T08:04:44.655Z,48.10
2023-03-04T08:07:17.323Z,50.48
2023-03-04T08:09:50.531Z,44.58
2023-03-04T08:12:25.087Z,47.43
2023-03-04T08:14:57.665Z,48.95
2023-03-04T08:17:31.472Z,46.30
2023-03-04T08:20:04.421Z,52.03
2023-03-04T08:22:37.666Z,49.75
2023-03-04T08:25:11.152Z,53.58
2023-03-04T08:27:44.859Z,55.55
2023-03-04T08:30:18.752Z,52.93
2023-03-04T08:32:53.054Z,55.43
2023-03-04T08:35:25.586Z,52.50
2023-03-04T08:37:59.693Z,52.73
2023-03-04T08:40:33.558Z,56.13
2023-03-04T08:43:06.744Z,49.93
2023-03-04T08:45:40.411Z,54.10
2023-03-04T08:48:13.576Z,50.58
2023-03-04T08:50:47.567Z,53.85
2023-03-04T08:53:20.509Z,53.60
2023-03-04T08:55:54.323Z,55.28
2023-03-04T08:58:26.926Z,57.60
2023-03-04T09:01:01.440Z,49.00
2023-03-04T09:03:34.609Z,54.13
2023-03-04T09:06:08.088Z,51.90
2023-03-04T09:08:41.122Z,50.12
2023-03-04T09:11:14.469Z,49.83
2023-03-04T09:13:47.629Z,51.77
2023-03-04T09:16:21.787Z,51.08
2023-03-04T09:18:54.112Z,51.68
2023-03-04T09:21:28.043Z,47.20
2023-03-04T09:24:00.503Z,50.28
2023-03-04T09:26:33.330Z,42.05
2023-03-04T09:29:06.754Z,42.73
2023-03-04T09:31:39.747Z,43.65
2023-03-04T09:34:12.600Z,42.20
2023-03-04T09:36:45.320Z,44.18
2023-03-04T09:39:19.497Z,47.10
2023-03-04T09:41:56.734Z,48.38
2023-03-04T09:44:51.483Z,48.80
2023-03-04T09:47:25.564Z,41.30
2023-03-04T09:50:04.192Z,44.90
2023-03-04T09:53:11.744Z,40.45
2023-03-04T09:55:47.778Z,41.25
2023-03-04T09:58:59.736Z,38.23
2023-03-04T10:01:46.172Z,37.83
2023-03-04T10:04:52.821Z,39.23
2023-03-04T10:07:29.443Z,40.12
2023-03-04T10:10:15.693Z,40.00
2023-03-04T10:12:48.972Z,44.13
2023-03-04T10:15:41.710Z,41.92
2023-03-04T10:18:23.827Z,42.67
2023-03-04T10:21:01.495Z,39.40
2023-03-04T10:23:37.797Z,39.25
2023-03-04T10:26:21.009Z,36.10
2023-03-04T10:28:53.328Z,39.48
2023-03-04T10:31:37.986Z,40.52
2023-03-04T10:34:13.133Z,41.53
2023-03-04T10:37:03.258Z,40.30
2023-03-04T10:39:42.660Z,35.58
2023-03-04T10:42:22.753Z,30.40
2023-03-04T10:44:58.761Z,40.45
2023-03-04T10:47:55.604Z,30.65
2023-03-04T10:50:29.228Z,36.88
2023-03-04T10:53:01.717Z,38.00
2023-03-04T10:55:45.771Z,35.90
2023-03-04T10:58:19.428Z,30.68
2023-03-04T11:01:07.189Z,34.63
2023-03-04T11:03:40.951Z,35.38
2023-03-04T11:06:23.132Z,32.88
2023-03-04T11:08:58.988Z,32.35
2023-03-04T11:11:46.174Z,32.35
2023-03-04T11:14:31.134Z,32.23
2023-03-04T11:19:41.113Z,34.13
2023-03-04T11:22:17.376Z,32.05
2023-03-04T11:25:06.452Z,28.32
2023-03-04T11:27:48.607Z,31.90
2023-03-04T11:30:38.010Z,33.92
2023-03-04T11:33:37.238Z,34.70
2023-03-04T11:36:20.380Z,34.03
2023-03-04T11:38:53.629Z,32.20
2023-03-04T11:41:40.073Z,31.52
2023-03-04T11:44:13.677Z,29.67
2023-03-04T11:46:53.888Z,36.03
2023-03-04T11:49:52.148Z,32.00
2023-03-04T11:53:00.298Z,31.17
2023-03-04T11:55:43.582Z,31.17
2023-03-04T11:58:48.409Z,33.78
2023-03-04T12:01:35.330Z,33.75
2023-03-04T12:04:29.325Z,31.65
2023-03-04T12:07:30.859Z,32.95
2023-03-04T12:10:33.052Z,31.00
2023-03-04T12:13:46.807Z,31.25
2023-03-04T12:16:52.606Z,33.45
2023-03-04T12:20:13.121Z,31.37
2023-03-04T12:22:59.879Z,34.43
2023-03-04T12:26:02.135Z,31.68
2023-03-04T12:29:18.402Z,31.80
2023-03-04T12:32:00.676Z,31.85
2023-03-04T12:35:05.336Z,33.67
2023-03-04T12:38:04.020Z,35.10
2023-03-04T12:41:19.483Z,31.07
2023-03-04T12:44:08.771Z,34.33
2023-03-04T12:47:09.927Z,34.78
2023-03-04T12:50:32.233Z,32.58
2023-03-04T12:53:41.480Z,32.58
2023-03-04T12:56:24.543Z,31.52
2023-03-04T12:58:56.817Z,31.73
2023-03-04T13:02:09.323Z,27.50
2023-03-04T13:05:05.678Z,34.50
2023-03-04T13:07:46.549Z,31.17
2023-03-04T13:10:21.852Z,30.00
2023-03-04T13:12:59.403Z,32.25
2023-03-04T13:15:39.187Z,33.20
2023-03-04T13:18:35.163Z,31.65
2023-03-04T13:21:28.985Z,29.42
2023-03-04T13:24:05.120Z,30.35
2023-03-04T13:26:37.558Z,33.38
2023-03-04T13:29:24.472Z,33.65
2023-03-04T13:32:07.897Z,34.18
2023-03-04T13:34:54.147Z,31.33
2023-03-04T13:37:37.298Z,31.97
2023-03-04T13:40:35.738Z,34.33
2023-03-04T13:43:29.923Z,30.92
2023-03-04T13:46:28.018Z,35.33
2023-03-04T13:49:03.959Z,31.00
2023-03-04T13:51:44.184Z,33.73
2023-03-04T13:54:31.988Z,32.33
2023-03-04T13:57:20.302Z,31.10
2023-03-04T13:59:58.625Z,32.58
2023-03-04T14:02:32.091Z,30.00
2023-03-04T14:05:04.419Z,26.25
2023-03-04T14:07:38.234Z,26.45
2023-03-04T14:12:55.702Z,30.00
2023-03-04T14:15:29.856Z,33.00
2023-03-04T14:18:06.920Z,30.12
2023-03-04T14:20:42.798Z,33.60
2023-03-04T14:23:33.412Z,29.92
2023-03-04T14:26:15.162Z,28.62
2023-03-04T14:28:52.759Z,29.42
2023-03-04T14:31:30.922Z,26.48
2023-03-04T14:34:04.351Z,25.30
2023-03-04T14:36:37.464Z,25.55
2023-03-04T14:39:13.939Z,25.55
2023-03-04T14:41:47.285Z,25.12
2023-03-04T14:44:39.254Z,25.60
2023-03-04T14:47:39.379Z,22.82
2023-03-04T14:50:20.657Z,25.50
2023-03-04T14:53:11.863Z,26.00
2023-03-04T14:56:04.566Z,23.35
2023-03-04T14:58:39.185Z,29.63
2023-03-04T15:01:24.424Z,25.08
2023-03-04T15:04:09.604Z,24.10
2023-03-04T15:06:50.846Z,20.48
2023-03-04T15:09:26.648Z,21.20
2023-03-04T15:12:06.108Z,20.43
2023-03-04T15:14:54.710Z,19.67
2023-03-04T15:17:42.733Z,21.33
2023-03-04T15:20:23.587Z,20.65
2023-03-04T15:23:02.956Z,20.72
2023-03-04T15:25:35.569Z,23.30
2023-03-04T15:28:12.413Z,21.07
2023-03-04T15:30:44.967Z,24.37
2023-03-04T15:33:20.791Z,24.10
2023-03-04T15:35:59.495Z,20.27
2023-03-04T15:38:31.888Z,22.13
2023-03-04T15:41:05.177Z,23.77
2023-03-04T15:43:37.721Z,19.20
2023-03-04T15:46:12.783Z,22.30
2023-03-04T15:48:45.919Z,22.93
2023-03-04T15:51:23.774Z,22.87
2023-03-04T15:53:57.997Z,18.23
2023-03-04T15:56:34.814Z,20.08
2023-03-04T15:59:13.872Z,25.32
2023-03-04T16:01:46.873Z,23.27
2023-03-04T16:04:19.335Z,23.00
2023-03-04T16:06:51.765Z,21.73
2023-03-04T16:09:24.343Z,22.13
2023-03-04T16:11:58.527Z,25.02
2023-03-04T16:14:31.293Z,24.45
2023-03-04T16:17:03.760Z,23.75
2023-03-04T16:19:36.173Z,23.50
2023-03-04T16:22:10.595Z,19.57
2023-03-04T16:24:43.738Z,21.73
2023-03-04T16:27:16.947Z,22.42
2023-03-04T16:29:49.532Z,22.42
2023-03-04T16:32:21.974Z,23.05
2023-03-04T16:34:54.587Z,21.00
2023-03-04T16:37:27.037Z,21.07
2023-03-04T16:40:00.407Z,22.55
2023-03-04T16:42:34.759Z,22.27
2023-03-04T16:47:40.159Z,20.50
2023-03-04T16:50:23.872Z,21.30
2023-03-04T16:52:57.977Z,22.40
2023-03-04T16:55:31.156Z,20.48
2023-03-04T16:58:05.476Z,22.13
2023-03-04T17:00:40.026Z,22.02
2023-03-04T17:03:12.727Z,22.98
2023-03-04T17:05:45.596Z,24.70
2023-03-04T17:08:18.803Z,29.20
2023-03-04T17:10:52.761Z,24.95
2023-03-04T17:13:25.749Z,22.90
2023-03-04T17:16:04.409Z,23.38
2023-03-04T17:18:37.784Z,24.45
2023-03-04T17:21:13.570Z,26.52
2023-03-04T17:23:46.082Z,21.95
2023-03-04T17:26:20.186Z,21.00
2023-03-04T17:28:52.853Z,20.52
2023-03-04T17:31:25.329Z,21.30
2023-03-04T17:33:58.463Z,21.42
2023-03-04T17:36:30.964Z,22.58
2023-03-04T17:39:05.435Z,21.87
2023-03-04T17:41:38.732Z,23.45
2023-03-04T17:44:12.356Z,24.57
2023-03-04T17:46:45.875Z,25.30
2023-03-04T17:49:18.434Z,21.75
2023-03-04T17:51:51.660Z,20.82
2023-03-04T17:54:24.179Z,21.97
2023-03-04T17:56:56.543Z,19.82
2023-03-04T17:59:29.074Z,21.10
2023-03-04T18:02:02.876Z,20.20
2023-03-04T18:04:36.392Z,23.52
2023-03-04T18:07:09.751Z,17.82
2023-03-04T18:09:44.632Z,19.27
2023-03-04T18:12:17.063Z,19.82
2023-03-04T18:14:50.218Z,21.15
2023-03-04T18:17:22.936Z,22.65
2023-03-04T18:19:56.820Z,21.27
2023-03-04T18:22:29.323Z,19.10
2023-03-04T18:25:02.297Z,20.55
2023-03-04T18:27:35.652Z,22.05
2023-03-04T18:30:15.864Z,19.30
2023-03-04T18:32:52.254Z,25.08
2023-03-04T18:35:23.305Z,21.02
2023-03-04T18:37:56.676Z,21.23
2023-03-04T18:40:29.750Z,19.67
2023-03-04T18:43:03.078Z,19.77
2023-03-04T18:45:36.943Z,17.85
2023-03-04T18:48:09.511Z,19.82
2023-03-04T18:50:43.172Z,18.80
2023-03-04T18:53:16.434Z,19.85
2023-03-04T18:55:49.228Z,23.40
2023-03-04T18:58:21.652Z,19.67
2023-03-04T19:00:54.963Z,18.95
2023-03-04T19:03:27.408Z,18.10
2023-03-04T19:06:00.565Z,19.55
2023-03-04T19:08:33.647Z,18.48
2023-03-04T19:11:07.452Z,22.80
2023-03-04T19:13:40.573Z,23.45
2023-03-04T19:16:13.463Z,19.02
2023-03-04T19:18:45.928Z,18.87
2023-03-04T19:21:19.294Z,20.48
2023-03-04T19:23:51.826Z,21.82
2023-03-04T19:26:24.867Z,22.93
2023-03-04T19:28:57.323Z,20.95
2023-03-04T19:31:29.774Z,24.43
2023-03-04T19:34:02.576Z,21.77
2023-03-04T19:36:35.161Z,21.70
2023-03-04T19:39:07.654Z,23.27
2023-03-04T19:41:41.248Z,22.37
2023-03-04T19:44:14.833Z,22.70
2023-03-04T19:46:48.211Z,25.12
2023-03-04T19:49:21.388Z,21.48
2023-03-04T19:51:54.433Z,23.67
2023-03-04T19:54:26.745Z,25.75
2023-03-04T19:56:59.899Z,23.35
2023-03-04T19:59:32.963Z,24.40
2023-03-04T20:02:05.933Z,28.10
2023-03-04T20:04:38.850Z,28.47
2023-03-04T20:07:12.726Z,22.13
2023-03-04T20:09:46.350Z,31.53
2023-03-04T20:12:19.178Z,24.98
2023-03-04T20:14:52.525Z,27.75
2023-03-04T20:17:25.354Z,25.60
2023-03-04T20:19:57.817Z,27.98
2023-03-04T20:22:30.578Z,25.85
2023-03-04T20:25:02.912Z,26.07
2023-03-04T20:27:36.880Z,27.50
2023-03-04T20:30:10.970Z,29.37
2023-03-04T20:35:15.981Z,27.70
2023-03-04T20:37:48.479Z,28.17
2023-03-04T20:40:21.541Z,35.13
2023-03-04T20:42:54.146Z,23.18
2023-03-04T20:45:26.554Z,19.55
2023-03-04T20:47:59.255Z,14.98
2023-03-04T20:50:32.280Z,17.25
2023-03-04T20:53:04.932Z,11.22
2023-03-04T20:55:37.266Z,14.28
2023-03-04T20:58:09.840Z,10.30
2023-03-04T21:00:42.270Z,11.28
2023-03-04T21:03:15.263Z,9.23
2023-03-04T21:05:48.444Z,5.65
2023-03-04T21:08:20.764Z,5.92
2023-03-04T21:10:53.302Z,4.55
2023-03-04T21:13:27.318Z,5.40
2023-03-04T21:16:00.832Z,4.22
2023-03-04T21:18:33.742Z,3.30
2023-03-04T21:21:16.961Z,3.37
2023-03-04T21:23:52.980Z,3.47
2023-03-04T21:26:25.726Z,3.33
2023-03-04T21:28:58.722Z,4.00
2023-03-04T21:31:32.345Z,3.60
2023-03-04T21:34:04.933Z,2.62
2023-03-04T21:36:37.350Z,4.53
2023-03-04T21:39:16.608Z,2.80
2023-03-04T21:41:49.542Z,2.42
2023-03-04T21:44:28.772Z,2.22
2023-03-04T21:47:00.725Z,1.20
2023-03-04T21:49:33.382Z,2.20
2023-03-04T21:52:06.540Z,2.58
2023-03-04T21:54:39.401Z,1.60
2023-03-04T21:57:13.648Z,3.62
2023-03-04T21:59:45.999Z,1.62
2023-03-04T22:02:21.385Z,2.58
2023-03-04T22:04:54.490Z,3.80
2023-03-04T22:07:26.776Z,2.95
2023-03-04T22:09:59.884Z,1.85
2023-03-04T22:12:33.376Z,2.65
2023-03-04T22:15:06.933Z,1.30
2023-03-04T22:17:39.686Z,3.33
2023-03-04T22:20:14.833Z,1.27
2023-03-04T22:22:48.891Z,1.10
2023-03-04T22:25:21.340Z,1.37
2023-03-04T22:27:53.783Z,1.52
2023-03-04T22:30:26.202Z,2.90
2023-03-04T22:32:58.651Z,1.35
2023-03-04T22:35:31.325Z,1.40
2023-03-04T22:38:03.786Z,3.25
2023-03-04T22:40:36.796Z,1.75
2023-03-04T22:43:09.340Z,1.90
2023-03-04T22:45:41.837Z,3.52
2023-03-04T22:48:14.720Z,3.30
2023-03-04T22:50:47.431Z,1.80
2023-03-04T22:53:20.243Z,2.90
2023-03-04T22:55:57.665Z,1.40
2023-03-04T22:58:30.745Z,2.30
2023-03-04T23:01:04.438Z,2.37
2023-03-04T23:03:37.940Z,2.08
2023-03-04T23:06:16.822Z,3.05
2023-03-04T23:08:50.986Z,3.00
2023-03-04T23:11:37.029Z,1.30
2023-03-04T23:14:09.642Z,1.50
2023-03-04T23:16:44.505Z,2.22
2023-03-04T23:19:17.972Z,2.67
2023-03-04T23:21:51.280Z,1.85
2023-03-04T23:24:25.706Z,1.80
2023-03-04T23:29:29.887Z,1.55
2023-03-04T23:32:02.233Z,1.30
2023-03-04T23:34:36.775Z,3.10
2023-03-04T23:37:09.105Z,2.62
2023-03-04T23:39:41.605Z,1.55
2023-03-04T23:42:14.466Z,1.57
2023-03-04T23:44:46.964Z,1.67
2023-03-04T23:47:19.295Z,1.67
2023-03-04T23:49:51.908Z,2.27
2023-03-04T23:52:24.401Z,1.42
2023-03-04T23:54:56.857Z,1.12
2023-03-04T23:57:29.110Z,1.87
